OMAD/AZI METAR and TAF weather

Enter ICAO airport designator
Station Type Date Time Source
OMAD METAR 2022/12/04 06:00 UTC NOAA

OMAD 040600Z 16004KT CAVOK 26/18 Q1017 NOSIG


Station Type Date Time Source
OMAD Decoded METAR 2022/12/04 06:00 UTC NOAA

Abu Dhabi Bateen Airport, United Arab Emirates (OMAD) 24-26N 054-28E 3M
Dec 04, 2022 - 01:00 AM EST / 2022.12.04 0600 UTC
Wind: from the SSE (160 degrees) at 5 MPH (4 KT):0
Visibility: greater than 7 mile(s):0
Temperature: 78 F (26 C)
Dew Point: 64 F (18 C)
Relative Humidity: 61%
Pressure (altimeter): 30.03 in. Hg (1017 hPa)
ob: OMAD 040600Z 16004KT CAVOK 26/18 Q1017 NOSIG
cycle: 6

Station Type Date Time Source
OMAD TAF 2022/12/04 06:12 UTC NOAA

TAF OMAD 040500Z 0406/0512 22005KT CAVOK
BECMG 0406/0408 32010KT
BECMG 0418/0420 VRB02KT PROB30 0501/0505 4000 HZ
BECMG 0507/0509 32010KT

Example: see airport list